Time;durP1;ratioP1;P1;durP2;ratioP2;P2;SDS_P1;SDS_P2;PMS_P1;PMS_P2;Temp;Humidity;BMP_temperature;BMP_pressure;BME280_temperature;BME280_humidity;BME280_pressure;Samples;Min_cycle;Max_cycle;Signal;HPM_P1;HPM_P2
2022/11/26 00:00:25;;;;;;;;;41.50;34.75;;;;;9.95;62.99;102337.84;6339523;22;45409;-60
2022/11/26 00:02:52;;;;;;;;;46.00;37.75;;;;;9.95;62.94;102352.69;6334106;22;46130;-60
2022/11/26 00:05:19;;;;;;;;;50.25;38.00;;;;;9.92;62.99;102353.53;6339867;22;45229;-60
2022/11/26 00:07:53;;;;;;;;;45.00;36.00;;;;;9.90;62.78;102350.03;6341030;22;45292;-60
2022/11/26 00:10:29;;;;;;;;;42.50;36.25;;;;;9.88;62.78;102355.22;6341240;22;45349;-60
2022/11/26 00:12:55;;;;;;;;;55.00;42.75;;;;;9.87;63.02;102366.63;6340866;22;45371;-60
2022/11/26 00:15:27;;;;;;;;;43.25;36.25;;;;;9.86;62.79;102366.56;6341248;22;45392;-60
2022/11/26 00:17:53;;;;;;;;;50.50;38.75;;;;;9.84;63.04;102361.31;6340936;22;45224;-60
2022/11/26 00:20:22;;;;;;;;;46.75;37.00;;;;;9.83;62.70;102370.03;6340628;22;45274;-60
2022/11/26 00:22:50;;;;;;;;;53.25;39.00;;;;;9.82;62.93;102363.00;6340400;22;46212;-59
2022/11/26 00:25:22;;;;;;;;;53.75;42.50;;;;;9.82;62.76;102367.41;6341205;22;45199;-59
2022/11/26 00:27:49;;;;;;;;;53.50;41.00;;;;;9.81;62.77;102370.88;6340553;22;45326;-59
2022/11/26 00:30:24;;;;;;;;;52.50;41.00;;;;;9.78;63.00;102370.84;6341049;22;45175;-59
2022/11/26 00:32:50;;;;;;;;;51.50;39.25;;;;;9.77;62.79;102375.19;6335396;22;46231;-59
2022/11/26 00:35:15;;;;;;;;;49.25;39.00;;;;;9.74;62.94;102373.41;6338780;22;45843;-59
2022/11/26 00:37:45;;;;;;;;;40.75;35.00;;;;;9.73;63.05;102382.13;6341126;22;45161;-59
2022/11/26 00:40:19;;;;;;;;;49.25;39.00;;;;;9.71;63.10;102381.25;6340335;22;45388;-60
2022/11/26 00:42:45;;;;;;;;;42.50;36.50;;;;;9.70;62.88;102376.84;6340559;22;45901;-60
2022/11/26 00:45:21;;;;;;;;;46.50;38.50;;;;;9.67;62.80;102378.53;6340544;22;45238;-59
2022/11/26 00:47:47;;;;;;;;;48.50;37.75;;;;;9.65;62.89;102383.78;6337916;22;45544;-59
2022/11/26 00:50:21;;;;;;;;;51.00;39.25;;;;;9.65;62.90;102385.50;6341114;22;45417;-60
2022/11/26 00:52:49;;;;;;;;;50.00;42.50;;;;;9.64;62.88;102389.00;6338759;22;48106;-59
2022/11/26 00:55:37;;;;;;;;;53.75;41.50;;;;;9.60;63.20;102388.94;6341245;22;45258;-60
2022/11/26 00:58:04;;;;;;;;;50.00;40.25;;;;;9.59;63.05;102391.56;6340229;22;45297;-59
2022/11/26 01:00:32;;;;;;;;;45.00;35.75;;;;;9.56;62.92;102381.03;6340805;22;45289;-60
2022/11/26 01:02:58;;;;;;;;;51.00;40.00;;;;;9.55;63.11;102384.50;6336925;22;45215;-60
2022/11/26 01:05:28;;;;;;;;;47.75;38.75;;;;;9.54;63.11;102377.47;6332908;22;45699;-60
2022/11/26 01:07:58;;;;;;;;;43.25;36.75;;;;;9.53;63.23;102383.56;6333424;22;45410;-60
2022/11/26 01:10:27;;;;;;;;;45.50;35.75;;;;;9.53;63.14;102380.94;6333474;22;45298;-60
2022/11/26 01:12:53;;;;;;;;;49.25;40.50;;;;;9.51;63.21;102391.44;6339902;22;46061;-60
2022/11/26 01:15:21;;;;;;;;;47.75;39.50;;;;;9.51;63.13;102393.16;6340823;22;45403;-60
2022/11/26 01:17:46;;;;;;;;;51.00;41.25;;;;;9.50;63.24;102401.91;6340879;22;45252;-60
2022/11/26 01:20:27;;;;;;;;;54.50;40.25;;;;;9.42;63.21;102393.88;6340699;22;45236;-60
2022/11/26 01:22:54;;;;;;;;;40.75;35.75;;;;;9.46;63.05;102407.94;6340747;22;45997;-60
2022/11/26 01:25:20;;;;;;;;;53.75;40.75;;;;;9.35;62.98;102392.03;6340714;22;45365;-60
2022/11/26 01:27:45;;;;;;;;;49.50;39.00;;;;;9.43;63.07;102403.53;6340606;22;45312;-60
2022/11/26 01:30:23;;;;;;;;;50.00;42.00;;;;;9.41;63.28;102403.50;6340471;22;45312;-60
2022/11/26 01:32:49;;;;;;;;;45.50;37.25;;;;;9.40;63.44;102409.59;6340729;22;46301;-60
2022/11/26 01:35:17;;;;;;;;;48.50;39.00;;;;;9.29;63.01;102390.16;6340978;22;45203;-60
2022/11/26 01:37:43;;;;;;;;;50.00;39.00;;;;;9.37;63.33;102400.78;6341070;22;45268;-61
2022/11/26 01:40:46;;;;;;;;;50.25;38.00;;;;;9.37;63.23;102406.03;6339086;22;45171;-61
2022/11/26 01:43:35;;;;;;;;;42.75;36.25;;;;;9.34;63.25;102396.38;6299435;22;46507;-60
2022/11/26 01:46:01;;;;;;;;;42.75;36.50;;;;;9.31;63.07;102398.06;6340408;22;45305;-60
2022/11/26 01:48:32;;;;;;;;;47.50;39.25;;;;;9.26;63.24;102383.13;6340621;22;45255;-61
2022/11/26 01:51:03;;;;;;;;;45.50;35.75;;;;;9.27;63.45;102398.03;6338827;22;45416;-60
2022/11/26 01:53:43;;;;;;;;;36.75;32.00;;;;;9.26;63.48;102393.63;6339992;22;46244;-60
2022/11/26 01:56:19;;;;;;;;;45.00;37.50;;;;;9.23;63.19;102390.97;6340169;22;45231;-60
2022/11/26 01:59:05;;;;;;;;;42.25;36.25;;;;;9.18;63.27;102395.25;6338103;22;45326;-62
2022/11/26 02:01:32;;;;;;;;;34.75;32.00;;;;;9.15;63.51;102391.69;6338467;22;45450;-60
2022/11/26 02:04:12;;;;;;;;;44.50;35.75;;;;;9.16;63.50;102394.31;6340621;22;46104;-60
2022/11/26 02:06:39;;;;;;;;;38.00;34.25;;;;;9.15;63.43;102394.31;6340391;22;45289;-60
2022/11/26 02:09:07;;;;;;;;;42.00;35.25;;;;;9.16;63.22;102391.69;6340952;22;45263;-60
2022/11/26 02:11:32;;;;;;;;;39.25;34.50;;;;;9.15;63.36;102391.69;6335234;22;45363;-60
2022/11/26 02:14:01;;;;;;;;;45.50;33.25;;;;;9.10;63.37;102387.22;6340695;22;45920;-60
2022/11/26 02:16:32;;;;;;;;;44.75;35.00;;;;;9.12;63.24;102400.38;6340302;22;45187;-60
2022/11/26 02:19:28;;;;;;;;;41.25;35.00;;;;;9.09;63.60;102381.94;6340949;22;45362;-60
2022/11/26 02:22:35;;;;;;;;;41.00;35.00;;;;;8.96;63.56;102372.97;6340279;22;45289;-60
2022/11/26 02:25:17;;;;;;;;;41.50;34.75;;;;;9.02;63.60;102386.19;6339801;22;46417;-60
2022/11/26 02:28:07;;;;;;;;;36.50;32.75;;;;;9.03;63.47;102390.59;6339784;22;45330;-60
2022/11/26 02:30:41;;;;;;;;;39.50;32.50;;;;;9.01;63.38;102392.31;6338382;22;45263;-60
2022/11/26 02:33:14;;;;;;;;;38.00;32.50;;;;;9.01;63.62;102394.06;6338470;22;45195;-60
2022/11/26 02:35:55;;;;;;;;;45.25;33.25;;;;;8.98;63.56;102384.38;6340347;22;46119;-61
2022/11/26 02:38:24;;;;;;;;;36.00;31.50;;;;;8.97;63.58;102385.25;6340203;22;45344;-60
2022/11/26 02:40:50;;;;;;;;;41.00;33.00;;;;;8.96;63.56;102378.22;6334443;22;45271;-61
2022/11/26 02:43:17;;;;;;;;;38.50;32.75;;;;;8.96;63.65;102374.72;6338162;22;45195;-60
2022/11/26 02:45:48;;;;;;;;;39.25;33.25;;;;;8.94;63.78;102380.81;6339933;22;45998;-60
2022/11/26 02:48:22;;;;;;;;;40.00;33.00;;;;;8.96;63.57;102378.22;6321906;22;45821;-60
2022/11/26 02:50:56;;;;;;;;;18.75;10.25;;;;;8.96;63.72;102383.47;6336923;22;45745;-60
2022/11/26 02:53:25;;;;;;;;;40.75;34.00;;;;;8.93;63.47;102391.25;6336265;22;45365;-60
2022/11/26 02:56:02;;;;;;;;;39.50;32.00;;;;;8.96;63.55;102387.84;6335415;22;46030;-60
2022/11/26 02:58:29;;;;;;;;;38.75;34.50;;;;;8.93;63.62;102386.91;6335984;22;45399;-60
2022/11/26 03:00:58;;;;;;;;;35.75;30.50;;;;;8.92;63.60;102374.66;6337184;22;45390;-60
2022/11/26 03:03:31;;;;;;;;;34.25;31.75;;;;;8.93;63.77;102386.00;6336011;22;45726;-60
2022/11/26 03:06:01;;;;;;;;;34.25;31.50;;;;;8.92;63.44;102384.28;6335708;22;45703;-60
2022/11/26 03:08:27;;;;;;;;;35.75;31.50;;;;;8.92;63.36;102381.66;6335762;22;45875;-60
2022/11/26 03:10:53;;;;;;;;;35.50;32.50;;;;;8.94;63.51;102387.78;6331287;22;45287;-60
2022/11/26 03:13:18;;;;;;;;;35.00;25.75;;;;;8.90;63.72;102386.84;6334382;22;45447;-60
2022/11/26 03:15:44;;;;;;;;;38.00;32.50;;;;;8.95;63.56;102384.31;6336733;22;45648;-60
2022/11/26 03:18:09;;;;;;;;;38.25;31.50;;;;;8.90;63.55;102372.84;6335667;22;45316;-60
2022/11/26 03:20:34;;;;;;;;;37.00;31.75;;;;;8.96;63.53;102383.47;6338484;22;45437;-60
2022/11/26 03:23:00;;;;;;;;;36.00;29.50;;;;;8.96;63.50;102383.47;6338267;22;45531;-60
2022/11/26 03:25:25;;;;;;;;;37.50;29.50;;;;;8.96;63.57;102386.09;6339987;22;45376;-60
2022/11/26 03:27:51;;;;;;;;;41.25;34.25;;;;;8.95;63.57;102386.94;6337879;22;45303;-60
2022/11/26 03:30:16;;;;;;;;;38.25;33.00;;;;;8.90;63.64;102381.59;6339920;22;45255;-60
2022/11/26 03:32:41;;;;;;;;;32.00;30.50;;;;;8.93;63.55;102392.16;6340159;22;45306;-60
2022/11/26 03:35:08;;;;;;;;;31.50;28.25;;;;;8.93;63.49;102394.78;6339954;22;45249;-60
2022/11/26 03:37:33;;;;;;;;;38.00;33.00;;;;;8.92;63.67;102393.00;6339939;22;45289;-61
2022/11/26 03:39:58;;;;;;;;;36.50;32.50;;;;;8.90;63.72;102394.72;6339128;22;45245;-60
2022/11/26 03:42:24;;;;;;;;;18.00;14.50;;;;;8.87;63.63;102399.03;6334600;22;50605;-60
2022/11/26 03:44:49;;;;;;;;;40.00;33.25;;;;;8.84;63.79;102398.97;6337535;22;47226;-60
2022/11/26 03:47:14;;;;;;;;;40.75;34.50;;;;;8.78;63.58;102386.63;6340048;22;45238;-60
2022/11/26 03:49:40;;;;;;;;;40.25;32.25;;;;;8.77;63.57;102388.34;6339720;22;45231;-60
2022/11/26 03:52:05;;;;;;;;;37.50;31.50;;;;;8.74;63.64;102388.31;6340290;22;45084;-60
2022/11/26 03:54:31;;;;;;;;;39.00;33.25;;;;;8.70;63.63;102390.81;6339552;22;45320;-60
2022/11/26 03:56:56;;;;;;;;;39.50;34.25;;;;;8.71;63.72;102401.34;6339935;22;45219;-60
2022/11/26 03:59:21;;;;;;;;;37.25;32.75;;;;;8.71;63.60;102400.47;6339075;22;45164;-60
2022/11/26 04:01:47;;;;;;;;;38.00;31.25;;;;;8.69;63.59;102399.53;6339515;22;45419;-60
2022/11/26 04:04:12;;;;;;;;;38.25;29.50;;;;;8.67;63.53;102407.38;6339713;22;48141;-60
2022/11/26 04:06:37;;;;;;;;;38.25;32.50;;;;;8.65;63.53;102403.81;6339142;22;45257;-60
2022/11/26 04:09:03;;;;;;;;;31.75;30.75;;;;;8.61;63.54;102397.63;6340089;22;45232;-60
2022/11/26 04:11:28;;;;;;;;;34.00;30.00;;;;;8.56;63.66;102401.03;6334116;22;45343;-60
2022/11/26 04:13:53;;;;;;;;;34.75;30.50;;;;;8.57;63.69;102413.28;6339709;22;46095;-60
2022/11/26 04:16:19;;;;;;;;;32.25;31.00;;;;;8.55;63.60;102408.03;6339508;22;49046;-60
2022/11/26 04:18:45;;;;;;;;;35.00;32.25;;;;;8.55;63.79;102413.25;6339068;22;45246;-60
2022/11/26 04:21:10;;;;;;;;;42.75;36.50;;;;;8.53;63.65;102408.81;6339226;22;45292;-60
2022/11/26 04:23:36;;;;;;;;;40.75;35.25;;;;;8.52;63.74;102413.19;6337619;22;47860;-60
2022/11/26 04:26:01;;;;;;;;;43.00;36.50;;;;;8.51;63.66;102418.41;6338738;22;54883;-60
2022/11/26 04:28:26;;;;;;;;;37.75;34.75;;;;;8.48;63.57;102410.44;6339140;22;45663;-60
2022/11/26 04:30:52;;;;;;;;;48.75;34.00;;;;;8.47;63.61;102409.59;6335284;22;45761;-60
2022/11/26 04:33:17;;;;;;;;;37.00;34.75;;;;;8.45;63.41;102409.53;6338859;22;45270;-60
2022/11/26 04:35:43;;;;;;;;;40.25;34.25;;;;;8.42;63.73;102409.44;6339106;22;45288;-60
2022/11/26 04:38:08;;;;;;;;;37.25;34.25;;;;;8.40;63.41;102397.16;6339791;22;45310;-60
2022/11/26 04:40:34;;;;;;;;;38.75;33.00;;;;;8.38;63.44;102398.88;6337560;22;45202;-60
2022/11/26 04:42:59;;;;;;;;;31.75;24.00;;;;;8.35;63.53;102406.66;6335862;22;45554;-60
2022/11/26 04:45:26;;;;;;;;;35.50;33.25;;;;;8.28;63.63;102397.78;6339664;22;45250;-60
2022/11/26 04:47:51;;;;;;;;;37.50;30.25;;;;;8.27;63.75;102406.50;6339797;22;45196;-60
2022/11/26 04:50:16;;;;;;;;;36.75;32.50;;;;;8.23;63.52;102405.53;6338528;22;45378;-60
2022/11/26 04:52:42;;;;;;;;;33.25;30.75;;;;;8.22;63.47;102409.00;6340893;22;46080;-60
2022/11/26 04:55:08;;;;;;;;;37.50;34.00;;;;;8.20;63.52;102404.59;6341110;22;45093;-60
2022/11/26 04:57:33;;;;;;;;;33.50;30.75;;;;;8.19;63.50;102403.72;6341153;22;45345;-60
2022/11/26 04:59:58;;;;;;;;;37.00;33.00;;;;;8.15;63.66;102401.88;6340930;22;45456;-60
2022/11/26 05:02:24;;;;;;;;;35.75;30.75;;;;;8.16;63.24;102408.00;6340953;22;45269;-60
2022/11/26 05:04:49;;;;;;;;;35.50;32.25;;;;;8.14;63.51;102408.84;6340272;22;45249;-60
2022/11/26 05:07:14;;;;;;;;;33.50;32.25;;;;;8.10;63.55;102399.16;6339368;22;45368;-61
2022/11/26 05:09:39;;;;;;;;;39.75;32.75;;;;;8.11;63.71;102407.88;6340229;22;45377;-60
2022/11/26 05:12:05;;;;;;;;;31.75;28.25;;;;;8.01;63.73;102398.06;6330749;22;45903;-60
2022/11/26 05:14:30;;;;;;;;;40.25;33.25;;;;;8.10;63.26;102430.56;6328434;22;45335;-60
2022/11/26 05:16:56;;;;;;;;;35.00;32.00;;;;;8.10;63.68;102435.81;6336410;22;45323;-60
2022/11/26 05:19:21;;;;;;;;;38.50;35.25;;;;;8.10;63.29;102433.19;6315602;22;45634;-60
2022/11/26 05:21:46;;;;;;;;;33.50;32.50;;;;;8.10;63.58;102435.81;6334290;22;45997;-60
2022/11/26 05:24:11;;;;;;;;;33.75;32.50;;;;;8.08;63.50;102432.25;6334153;22;45560;-60
2022/11/26 05:26:37;;;;;;;;;30.50;28.25;;;;;8.09;63.39;102446.25;6339199;22;45286;-60
2022/11/26 05:29:02;;;;;;;;;41.50;30.75;;;;;8.09;63.40;102443.66;6336570;22;45653;-60
2022/11/26 05:31:28;;;;;;;;;37.75;33.25;;;;;8.08;63.27;102449.72;6339556;22;46119;-60
2022/11/26 05:33:54;;;;;;;;;38.50;33.00;;;;;8.09;63.74;102452.38;6338546;22;45591;-60
2022/11/26 05:36:19;;;;;;;;;39.50;32.00;;;;;8.07;63.49;102450.56;6339226;22;45329;-60
2022/11/26 05:38:45;;;;;;;;;40.00;30.00;;;;;8.09;63.52;102459.34;6339225;22;45570;-60
2022/11/26 05:41:10;;;;;;;;;34.75;30.25;;;;;8.05;63.72;102453.16;6334744;22;46367;-60
2022/11/26 05:43:35;;;;;;;;;28.75;27.50;;;;;8.03;63.41;102447.00;6338813;22;45249;-60
2022/11/26 05:46:05;;;;;;;;;22.00;18.75;;;;;8.05;63.48;102447.91;6339660;22;45389;-60
2022/11/26 05:48:31;;;;;;;;;32.00;29.75;;;;;8.02;63.46;102450.44;6336636;22;45345;-60
2022/11/26 05:50:57;;;;;;;;;32.50;30.00;;;;;8.02;63.63;102453.06;6338491;22;46026;-60
2022/11/26 05:53:23;;;;;;;;;43.00;36.25;;;;;8.01;63.69;102451.28;6339200;22;45356;-59
2022/11/26 05:55:48;;;;;;;;;38.50;34.25;;;;;8.01;63.73;102453.03;6339720;22;45464;-60
2022/11/26 05:58:14;;;;;;;;;34.50;31.50;;;;;8.01;63.69;102460.88;6339669;22;45489;-60
2022/11/26 06:00:39;;;;;;;;;32.25;29.25;;;;;7.98;63.65;102456.47;6338875;22;46474;-60
2022/11/26 06:03:05;;;;;;;;;32.75;29.25;;;;;7.98;63.87;102457.34;6337804;22;45281;-60
2022/11/26 06:05:31;;;;;;;;;33.75;31.75;;;;;7.97;63.59;102467.78;6337068;22;45401;-60
2022/11/26 06:07:56;;;;;;;;;34.50;29.50;;;;;7.96;63.65;102471.25;6338337;22;45263;-60
2022/11/26 06:10:21;;;;;;;;;32.75;28.50;;;;;7.94;63.54;102472.97;6334512;22;47117;-60
2022/11/26 06:12:47;;;;;;;;;30.00;29.25;;;;;7.93;63.68;102474.66;6335073;22;45639;-60
2022/11/26 06:15:12;;;;;;;;;30.25;30.25;;;;;7.92;63.68;102477.25;6340504;22;45310;-60
2022/11/26 06:17:37;;;;;;;;;30.75;27.50;;;;;7.93;63.64;102486.88;6338336;22;49080;-60
2022/11/26 06:20:04;;;;;;;;;35.75;33.50;;;;;7.87;63.72;102479.75;6340170;22;45108;-60
2022/11/26 06:22:29;;;;;;;;;31.25;30.00;;;;;7.92;63.55;102493.88;6340096;22;45263;-60
2022/11/26 06:24:54;;;;;;;;;32.00;28.00;;;;;7.92;63.63;102504.34;6338421;22;45437;-60
2022/11/26 06:27:20;;;;;;;;;28.75;26.25;;;;;7.91;63.75;102510.41;6339508;22;45403;-60
2022/11/26 06:29:45;;;;;;;;;25.50;23.00;;;;;7.91;63.78;102506.91;6339416;22;45261;-60
2022/11/26 06:32:10;;;;;;;;;33.00;29.75;;;;;7.90;63.50;102510.34;6340051;22;45613;-60
2022/11/26 06:34:36;;;;;;;;;27.75;25.00;;;;;7.91;63.75;102506.91;6340362;22;45255;-60
2022/11/26 06:37:01;;;;;;;;;28.25;25.00;;;;;7.92;63.83;102504.34;6340081;22;45332;-60
2022/11/26 06:39:26;;;;;;;;;28.25;25.50;;;;;7.89;63.71;102504.25;6339264;22;45347;-60
2022/11/26 06:41:52;;;;;;;;;31.25;27.00;;;;;7.89;63.67;102503.38;6334038;22;45610;-60
2022/11/26 06:44:17;;;;;;;;;27.00;23.25;;;;;7.86;63.78;102505.91;6332673;22;45340;-60
2022/11/26 06:46:42;;;;;;;;;31.00;25.00;;;;;7.88;63.86;102512.06;6339959;22;45409;-60
2022/11/26 06:49:09;;;;;;;;;31.00;25.50;;;;;7.86;63.85;102503.28;6338435;22;45293;-60
2022/11/26 06:51:34;;;;;;;;;21.50;20.00;;;;;7.88;63.80;102506.84;6340540;22;45200;-60
2022/11/26 06:54:00;;;;;;;;;26.50;25.00;;;;;7.82;63.80;102502.31;6338176;22;45441;-60
2022/11/26 06:56:25;;;;;;;;;23.50;17.75;;;;;7.83;63.77;102513.69;6338208;22;45272;-60
2022/11/26 06:58:53;;;;;;;;;29.00;24.50;;;;;7.81;63.67;102524.09;6334836;22;45857;-60
2022/11/26 07:01:25;;;;;;;;;25.75;20.50;;;;;7.80;63.75;102535.44;6330335;22;45413;-60
2022/11/26 07:03:51;;;;;;;;;22.25;20.75;;;;;7.77;63.64;102536.25;6340365;22;45174;-60
2022/11/26 07:06:25;;;;;;;;;26.00;25.25;;;;;7.76;63.74;102517.84;6339881;22;45317;-60
2022/11/26 07:08:51;;;;;;;;;26.75;21.00;;;;;7.73;63.74;102526.53;6338762;22;46095;-61
2022/11/26 07:11:18;;;;;;;;;27.75;22.50;;;;;7.69;63.72;102527.28;6339400;22;45246;-61
2022/11/26 07:13:44;;;;;;;;;22.25;20.00;;;;;7.70;63.91;102528.16;6337201;22;45261;-61
2022/11/26 07:16:09;;;;;;;;;25.25;24.50;;;;;7.69;63.70;102521.19;6336587;22;45515;-61
2022/11/26 07:18:35;;;;;;;;;18.75;17.25;;;;;7.68;63.59;102524.66;6337828;22;46069;-61
2022/11/26 07:21:09;;;;;;;;;27.75;25.25;;;;;7.67;63.69;102525.47;6339807;22;45285;-61
2022/11/26 07:23:35;;;;;;;;;30.25;26.00;;;;;7.68;63.69;102524.66;6340331;22;45336;-60
2022/11/26 07:26:01;;;;;;;;;27.25;24.25;;;;;7.62;63.79;102517.50;6339518;22;45585;-61
2022/11/26 07:28:27;;;;;;;;;28.00;25.00;;;;;7.61;63.87;102527.09;6339332;22;45377;-60
2022/11/26 07:30:52;;;;;;;;;23.25;21.50;;;;;7.64;63.73;102544.59;6339773;22;45369;-61
2022/11/26 07:33:17;;;;;;;;;27.75;24.25;;;;;7.60;63.76;102533.16;6339932;22;45738;-60
2022/11/26 07:35:43;;;;;;;;;23.50;22.25;;;;;7.58;63.96;102534.84;6339629;22;45488;-60
2022/11/26 07:38:08;;;;;;;;;17.25;17.25;;;;;7.57;64.00;102545.28;6339583;22;45317;-60
2022/11/26 07:40:33;;;;;;;;;25.25;20.75;;;;;7.50;64.10;102552.09;6339694;22;48043;-61
2022/11/26 07:42:59;;;;;;;;;24.75;20.00;;;;;7.52;64.20;102554.75;6336703;22;45281;-61
2022/11/26 07:45:24;;;;;;;;;21.75;18.75;;;;;7.49;64.09;102548.56;6326428;22;45791;-61
2022/11/26 07:47:50;;;;;;;;;19.50;16.00;;;;;7.45;64.18;102548.47;6331718;22;46308;-61
2022/11/26 07:50:15;;;;;;;;;23.00;19.50;;;;;7.38;64.06;102531.69;6335504;22;45204;-61
2022/11/26 07:52:40;;;;;;;;;23.50;20.00;;;;;7.38;64.29;102531.69;6333103;22;45759;-61
2022/11/26 07:55:06;;;;;;;;;20.50;17.50;;;;;7.38;64.50;102536.03;6335762;22;45262;-60
2022/11/26 07:57:31;;;;;;;;;20.00;19.50;;;;;7.38;64.40;102530.81;6337598;22;45518;-60
2022/11/26 07:59:57;;;;;;;;;19.75;13.25;;;;;7.36;64.17;102527.25;6338148;22;45513;-61
2022/11/26 08:02:22;;;;;;;;;21.25;21.25;;;;;7.36;64.52;102511.56;6338087;22;45727;-61
2022/11/26 08:04:47;;;;;;;;;24.25;23.50;;;;;7.33;64.57;102512.38;6337574;22;49207;-61
2022/11/26 08:07:13;;;;;;;;;21.50;19.25;;;;;7.38;64.55;102515.13;6338308;22;45584;-61
2022/11/26 08:09:38;;;;;;;;;24.00;20.75;;;;;7.39;64.34;102516.91;6337884;22;45593;-60
2022/11/26 08:12:03;;;;;;;;;25.25;23.25;;;;;7.41;64.23;102526.56;6338549;22;45301;-60
2022/11/26 08:14:29;;;;;;;;;27.00;23.50;;;;;7.42;64.67;102522.19;6336796;22;45562;-61
2022/11/26 08:16:54;;;;;;;;;28.50;23.00;;;;;7.41;64.50;102531.78;6338132;22;45866;-60
2022/11/26 08:19:20;;;;;;;;;23.50;19.00;;;;;7.47;64.60;102544.13;6337157;22;45344;-61
2022/11/26 08:21:45;;;;;;;;;35.50;26.75;;;;;7.44;64.40;102539.72;6337299;22;45254;-61
2022/11/26 08:24:14;;;;;;;;;27.50;24.50;;;;;7.52;64.60;102555.66;6332394;22;45304;-62
2022/11/26 08:26:39;;;;;;;;;29.50;25.00;;;;;7.52;64.67;102549.50;6338122;22;45261;-59
2022/11/26 08:29:05;;;;;;;;;25.50;21.75;;;;;7.57;64.62;102550.50;6338758;22;45254;-60
2022/11/26 08:31:31;;;;;;;;;32.50;26.75;;;;;7.62;64.71;102552.44;6339352;22;45386;-58
2022/11/26 08:34:01;;;;;;;;;31.25;24.50;;;;;7.65;64.73;102549.88;6336823;22;45241;-58
2022/11/26 08:36:28;;;;;;;;;28.00;24.25;;;;;7.67;64.75;102555.16;6339289;22;45245;-58
2022/11/26 08:38:53;;;;;;;;;23.50;22.25;;;;;7.75;64.47;102558.00;6338994;22;45812;-59
2022/11/26 08:41:19;;;;;;;;;25.00;20.75;;;;;7.65;64.85;102541.16;6339503;22;45416;-62
2022/11/26 08:43:44;;;;;;;;;24.00;20.75;;;;;7.80;64.95;102559.00;6339235;22;45362;-60
2022/11/26 08:46:10;;;;;;;;;23.50;20.25;;;;;7.78;65.00;102545.84;6335891;22;46335;-63
2022/11/26 08:48:35;;;;;;;;;29.00;25.75;;;;;7.86;64.84;102551.31;6338351;22;45196;-56
2022/11/26 08:51:08;;;;;;;;;22.00;20.25;;;;;7.90;64.95;102537.44;6338831;22;45332;-58
2022/11/26 08:53:34;;;;;;;;;30.25;27.00;;;;;7.94;65.02;102535.78;6330667;22;45827;-52
2022/11/26 08:56:06;;;;;;;;;29.00;27.00;;;;;7.97;64.81;102547.22;6335574;22;45381;-58
2022/11/26 08:58:33;;;;;;;;;32.00;26.50;;;;;8.03;65.01;102543.88;6328503;22;45376;-58
2022/11/26 09:00:58;;;;;;;;;25.25;22.75;;;;;8.05;65.01;102543.91;6335252;22;45359;-57
2022/11/26 09:03:24;;;;;;;;;32.75;30.00;;;;;8.13;64.83;102548.47;6337831;22;45328;-58
2022/11/26 09:05:49;;;;;;;;;26.75;23.75;;;;;8.18;64.89;102550.34;6338718;22;45948;-58
2022/11/26 09:08:15;;;;;;;;;21.50;19.50;;;;;8.20;65.19;102548.63;6340476;22;45148;-59
2022/11/26 09:10:40;;;;;;;;;23.75;17.25;;;;;8.22;65.40;102557.44;6341336;22;45293;-58
2022/11/26 09:13:05;;;;;;;;;29.00;24.25;;;;;8.18;65.21;102555.59;6340681;22;45400;-59
2022/11/26 09:15:30;;;;;;;;;22.75;19.75;;;;;8.23;65.09;102561.81;6340326;22;54036;-59
2022/11/26 09:17:56;;;;;;;;;23.75;21.00;;;;;8.24;65.10;102560.97;6339181;22;45202;-58
2022/11/26 09:20:21;;;;;;;;;29.25;24.25;;;;;8.17;65.34;102559.91;6340932;22;45163;-58
2022/11/26 09:22:47;;;;;;;;;28.75;24.50;;;;;8.16;65.33;102566.00;6339041;22;45396;-58
2022/11/26 09:25:12;;;;;;;;;31.50;27.25;;;;;8.15;65.50;102577.34;6340778;22;46014;-58
2022/11/26 09:27:37;;;;;;;;;23.00;19.50;;;;;8.16;65.21;102567.75;6340341;22;45211;-56
2022/11/26 09:30:03;;;;;;;;;25.00;22.50;;;;;8.16;65.30;102568.63;6340901;22;45465;-56
2022/11/26 09:32:29;;;;;;;;;24.50;22.00;;;;;8.12;65.22;102554.56;6340416;22;45284;-54
2022/11/26 09:34:54;;;;;;;;;21.75;20.00;;;;;8.13;65.46;102545.84;6340824;22;45197;-57
2022/11/26 09:37:20;;;;;;;;;28.00;25.00;;;;;8.11;65.20;102542.34;6340359;22;45265;-57
2022/11/26 09:39:45;;;;;;;;;32.00;23.50;;;;;8.14;65.55;102541.53;6338606;22;48003;-56
2022/11/26 09:42:37;;;;;;;;;30.50;23.00;;;;;8.18;65.59;102543.38;6341044;22;45346;-56
2022/11/26 09:45:29;;;;;;;;;29.50;26.75;;;;;8.14;65.55;102539.78;6291291;22;45359;-56
2022/11/26 09:47:55;;;;;;;;;28.75;23.50;;;;;8.20;65.44;102535.53;6339462;22;45248;-56
2022/11/26 09:50:48;;;;;;;;;24.75;23.50;;;;;8.22;65.60;102531.22;6339889;22;45121;-55
2022/11/26 09:53:26;;;;;;;;;33.50;27.25;;;;;8.23;65.62;102535.63;6337259;22;45437;-56
2022/11/26 09:55:54;;;;;;;;;23.25;22.00;;;;;8.30;65.65;102548.00;6340918;22;46074;-57
2022/11/26 09:58:31;;;;;;;;;25.50;22.25;;;;;8.31;65.77;102547.16;6340165;22;45242;-56
2022/11/26 10:00:59;;;;;;;;;23.50;21.00;;;;;8.32;65.98;102543.69;6341062;22;45230;-56
2022/11/26 10:03:36;;;;;;;;;29.25;23.00;;;;;8.38;65.85;102543.84;6340693;22;45504;-56
2022/11/26 10:06:43;;;;;;;;;25.75;22.50;;;;;8.42;65.94;102537.81;6340645;22;46056;-56
2022/11/26 10:09:18;;;;;;;;;25.75;22.50;;;;;8.43;65.97;102533.47;6338346;22;45479;-56
2022/11/26 10:11:49;;;;;;;;;29.00;25.00;;;;;8.45;65.82;102537.91;6340717;22;45469;-57
2022/11/26 10:14:17;;;;;;;;;28.25;23.50;;;;;8.51;65.95;102531.06;6340715;22;45169;-57
2022/11/26 10:16:54;;;;;;;;;22.25;20.50;;;;;8.57;65.86;102536.44;6338614;22;47127;-57
2022/11/26 10:19:27;;;;;;;;;23.75;23.50;;;;;8.62;66.09;102542.69;6340467;22;45384;-57
2022/11/26 10:21:57;;;;;;;;;27.50;24.50;;;;;8.64;65.84;102538.38;6340610;22;45231;-56
2022/11/26 10:24:37;;;;;;;;;19.75;18.25;;;;;8.65;66.00;102537.50;6340627;22;45332;-57
2022/11/26 10:27:32;;;;;;;;;31.25;22.25;;;;;8.71;65.93;102532.38;6340031;22;46883;-56
2022/11/26 10:30:15;;;;;;;;;22.75;20.75;;;;;8.75;66.22;102531.63;6326753;22;45183;-57
2022/11/26 10:32:44;;;;;;;;;25.50;23.00;;;;;8.81;66.05;102536.09;6340626;22;45178;-57
2022/11/26 10:35:15;;;;;;;;;23.50;21.50;;;;;8.78;66.23;102538.69;6340356;22;45438;-58
2022/11/26 10:37:41;;;;;;;;;24.00;24.00;;;;;8.82;66.26;102522.16;6340411;22;46954;-58
2022/11/26 10:40:26;;;;;;;;;25.75;25.50;;;;;8.88;66.33;102516.13;6339925;22;45106;-57
2022/11/26 10:43:07;;;;;;;;;31.25;23.75;;;;;8.92;66.49;102508.38;6340512;22;45266;-57
2022/11/26 10:45:35;;;;;;;;;37.50;27.50;;;;;8.96;66.15;102506.72;6340721;22;45320;-57
2022/11/26 10:48:19;;;;;;;;;32.25;26.25;;;;;9.01;66.42;102510.31;6340236;22;46016;-58
2022/11/26 10:51:05;;;;;;;;;31.00;23.25;;;;;9.08;66.34;102498.19;6339785;22;45258;-58
2022/11/26 10:53:58;;;;;;;;;27.50;24.25;;;;;9.09;66.51;102505.22;6338673;22;45196;-58
2022/11/26 10:56:45;;;;;;;;;33.75;30.00;;;;;9.16;66.33;102507.13;6328520;22;45510;-54
2022/11/26 10:59:35;;;;;;;;;35.50;32.25;;;;;9.18;66.27;102508.03;6338356;22;45577;-56
2022/11/26 11:02:04;;;;;;;;;31.50;25.75;;;;;9.21;66.40;102510.72;6340730;22;45329;-58
2022/11/26 11:04:35;;;;;;;;;19.25;16.50;;;;;9.24;66.28;102509.88;6340747;22;45293;-59
2022/11/26 11:07:01;;;;;;;;;38.25;34.00;;;;;9.29;66.35;102508.22;6338587;22;45796;-60
2022/11/26 11:09:35;;;;;;;;;37.25;29.75;;;;;9.34;66.62;102513.56;6338413;22;46626;-61
2022/11/26 11:12:16;;;;;;;;;29.00;24.50;;;;;9.32;66.70;102510.94;6338568;22;45346;-60
2022/11/26 11:14:43;;;;;;;;;40.25;32.75;;;;;9.37;66.65;102506.66;6340008;22;45276;-58
2022/11/26 11:17:35;;;;;;;;;32.50;27.75;;;;;9.40;66.34;102506.69;6338743;22;45504;-58
2022/11/26 11:20:14;;;;;;;;;35.75;30.75;;;;;9.43;66.76;102500.63;6339757;22;46137;-58
2022/11/26 11:22:40;;;;;;;;;35.00;30.75;;;;;9.47;66.45;102493.69;6338156;22;45314;-59
2022/11/26 11:25:21;;;;;;;;;28.50;25.75;;;;;9.50;66.51;102496.38;6338473;22;45253;-58